sensor_id;sensor_type;location;lat;lon;timestamp;pressure;altitude;pressure_sealevel;temperature;humidity
60427;BME280;46274;47.168;27.604;2023-04-22T00:03:17;99582.28;;;6.77;77.96
60427;BME280;46274;47.168;27.604;2023-04-22T00:09:41;99590.94;;;7.06;76.36
60427;BME280;46274;47.168;27.604;2023-04-22T00:15:50;99645.72;;;8.04;73.31
60427;BME280;46274;47.168;27.604;2023-04-22T00:22:08;99716.41;;;8.08;75.44
60427;BME280;46274;47.168;27.604;2023-04-22T00:28:23;99714.69;;;8.48;73.47
60427;BME280;46274;47.168;27.604;2023-04-22T00:34:39;99681.31;;;8.16;74.26
60427;BME280;46274;47.168;27.604;2023-04-22T00:40:42;99682.63;;;8.37;73.65
60427;BME280;46274;47.168;27.604;2023-04-22T00:47:06;99658.00;;;8.15;73.85
60427;BME280;46274;47.168;27.604;2023-04-22T00:53:11;99706.22;;;8.59;72.85
60427;BME280;46274;47.168;27.604;2023-04-22T00:59:24;99695.63;;;7.59;77.80
60427;BME280;46274;47.168;27.604;2023-04-22T01:05:36;99552.75;;;7.59;72.84
60427;BME280;46274;47.168;27.604;2023-04-22T01:11:54;99625.31;;;8.02;72.22
60427;BME280;46274;47.168;27.604;2023-04-22T01:18:32;99456.59;;;6.86;73.57
60427;BME280;46274;47.168;27.604;2023-04-22T01:24:55;99538.41;;;7.42;72.63
60427;BME280;46274;47.168;27.604;2023-04-22T01:31:42;99667.13;;;8.14;74.29
60427;BME280;46274;47.168;27.604;2023-04-22T01:37:57;99664.56;;;8.21;73.72
60427;BME280;46274;47.168;27.604;2023-04-22T01:44:09;99581.22;;;7.62;74.47
60427;BME280;46274;47.168;27.604;2023-04-22T01:50:18;99672.50;;;8.30;74.19
60427;BME280;46274;47.168;27.604;2023-04-22T01:56:27;99676.88;;;8.48;73.69
60427;BME280;46274;47.168;27.604;2023-04-22T02:02:34;99546.66;;;7.65;73.82
60427;BME280;46274;47.168;27.604;2023-04-22T02:14:54;99665.38;;;8.54;73.04
60427;BME280;46274;47.168;27.604;2023-04-22T02:21:28;99671.97;;;8.51;73.20
60427;BME280;46274;47.168;27.604;2023-04-22T02:34:31;99442.47;;;7.09;73.53
60427;BME280;46274;47.168;27.604;2023-04-22T02:40:51;99516.81;;;7.75;73.06
60427;BME280;46274;47.168;27.604;2023-04-22T02:46:58;99669.69;;;8.80;72.68
60427;BME280;46274;47.168;27.604;2023-04-22T02:53:10;99564.56;;;8.22;72.58
60427;BME280;46274;47.168;27.604;2023-04-22T02:59:22;99626.59;;;8.55;72.58
60427;BME280;46274;47.168;27.604;2023-04-22T03:05:43;99655.25;;;8.56;73.93
60427;BME280;46274;47.168;27.604;2023-04-22T03:11:52;99681.53;;;8.79;73.75
60427;BME280;46274;47.168;27.604;2023-04-22T03:18:02;99579.41;;;8.26;72.84
60427;BME280;46274;47.168;27.604;2023-04-22T03:24:05;99664.47;;;8.78;73.06
60427;BME280;46274;47.168;27.604;2023-04-22T03:30:17;99614.13;;;8.46;73.04
60427;BME280;46274;47.168;27.604;2023-04-22T03:36:54;99655.38;;;8.71;72.51
60427;BME280;46274;47.168;27.604;2023-04-22T03:43:09;99652.88;;;8.61;73.18
60427;BME280;46274;47.168;27.604;2023-04-22T03:49:30;99549.47;;;7.89;73.48
60427;BME280;46274;47.168;27.604;2023-04-22T03:55:33;99678.09;;;8.85;72.57
60427;BME280;46274;47.168;27.604;2023-04-22T04:01:50;99629.34;;;8.14;76.22
60427;BME280;46274;47.168;27.604;2023-04-22T04:08:08;99699.00;;;8.99;73.46
60427;BME280;46274;47.168;27.604;2023-04-22T04:14:24;99576.94;;;8.08;73.92
60427;BME280;46274;47.168;27.604;2023-04-22T04:20:29;99478.88;;;7.77;73.90
60427;BME280;46274;47.168;27.604;2023-04-22T04:26:45;99728.69;;;9.07;76.00
60427;BME280;46274;47.168;27.604;2023-04-22T04:32:47;99656.38;;;8.78;74.73
60427;BME280;46274;47.168;27.604;2023-04-22T04:39:33;99736.47;;;9.42;73.36
60427;BME280;46274;47.168;27.604;2023-04-22T04:45:45;99660.09;;;9.08;72.61
60427;BME280;46274;47.168;27.604;2023-04-22T04:51:56;99739.50;;;9.70;72.51
60427;BME280;46274;47.168;27.604;2023-04-22T04:57:59;99726.03;;;9.61;73.98
60427;BME280;46274;47.168;27.604;2023-04-22T05:04:15;99666.00;;;9.43;73.21
60427;BME280;46274;47.168;27.604;2023-04-22T05:39:39;99756.31;;;11.68;71.62
60427;BME280;46274;47.168;27.604;2023-04-22T05:52:21;99532.06;;;11.17;64.66
60427;BME280;46274;47.168;27.604;2023-04-22T06:20:32;99626.88;;;12.81;59.13
60427;BME280;46274;47.168;27.604;2023-04-22T06:34:30;99762.38;;;13.53;56.81
60427;BME280;46274;47.168;27.604;2023-04-22T06:41:23;99578.56;;;12.35;53.51
60427;BME280;46274;47.168;27.604;2023-04-22T06:48:23;99776.03;;;14.68;58.37
60427;BME280;46274;47.168;27.604;2023-04-22T06:54:50;99703.88;;;14.77;58.90
60427;BME280;46274;47.168;27.604;2023-04-22T07:08:07;99779.94;;;15.84;52.94
60427;BME280;46274;47.168;27.604;2023-04-22T07:14:29;99652.91;;;15.23;54.53
60427;BME280;46274;47.168;27.604;2023-04-22T07:20:44;99765.88;;;16.19;54.97
60427;BME280;46274;47.168;27.604;2023-04-22T07:34:46;99598.22;;;15.04;48.81
60427;BME280;46274;47.168;27.604;2023-04-22T07:42:06;99608.53;;;14.96;50.07
60427;BME280;46274;47.168;27.604;2023-04-22T07:49:07;99625.59;;;15.61;51.61
60427;BME280;46274;47.168;27.604;2023-04-22T07:56:12;99671.00;;;15.62;50.06
60427;BME280;46274;47.168;27.604;2023-04-22T08:17:11;99665.28;;;16.02;46.62
60427;BME280;46274;47.168;27.604;2023-04-22T08:24:20;99597.38;;;15.42;48.32
60427;BME280;46274;47.168;27.604;2023-04-22T08:38:30;99585.81;;;16.47;49.47
60427;BME280;46274;47.168;27.604;2023-04-22T08:53:25;99643.34;;;17.75;46.33
60427;BME280;46274;47.168;27.604;2023-04-22T09:00:26;99602.59;;;17.66;46.98
60427;BME280;46274;47.168;27.604;2023-04-22T09:06:55;99712.53;;;17.70;46.21
60427;BME280;46274;47.168;27.604;2023-04-22T09:50:21;99784.81;;;18.06;38.30
60427;BME280;46274;47.168;27.604;2023-04-22T09:57:23;99785.59;;;17.95;42.55
60427;BME280;46274;47.168;27.604;2023-04-22T10:04:15;99781.88;;;18.19;42.61
60427;BME280;46274;47.168;27.604;2023-04-22T10:10:55;99699.53;;;17.65;38.24
60427;BME280;46274;47.168;27.604;2023-04-22T10:17:36;99550.41;;;17.73;39.93
60427;BME280;46274;47.168;27.604;2023-04-22T10:39:20;99643.22;;;18.35;34.25
60427;BME280;46274;47.168;27.604;2023-04-22T10:45:25;99680.31;;;19.08;32.35
60427;BME280;46274;47.168;27.604;2023-04-22T10:59:52;99693.84;;;20.58;33.52
60427;BME280;46274;47.168;27.604;2023-04-22T11:13:41;99560.94;;;18.59;32.71
60427;BME280;46274;47.168;27.604;2023-04-22T11:27:29;99576.47;;;19.96;32.70
60427;BME280;46274;47.168;27.604;2023-04-22T11:33:50;99736.16;;;20.07;32.49
60427;BME280;46274;47.168;27.604;2023-04-22T12:02:37;99561.41;;;16.27;32.57
60427;BME280;46274;47.168;27.604;2023-04-22T12:17:08;99629.97;;;17.97;33.46
60427;BME280;46274;47.168;27.604;2023-04-22T12:24:14;99529.22;;;17.15;32.79
60427;BME280;46274;47.168;27.604;2023-04-22T12:37:35;99505.31;;;17.87;32.94
60427;BME280;46274;47.168;27.604;2023-04-22T12:44:24;99639.66;;;17.69;31.25
60427;BME280;46274;47.168;27.604;2023-04-22T12:50:35;99650.41;;;18.95;33.11
60427;BME280;46274;47.168;27.604;2023-04-22T12:57:07;99745.41;;;19.48;30.92
60427;BME280;46274;47.168;27.604;2023-04-22T13:03:16;99660.31;;;19.36;31.43
60427;BME280;46274;47.168;27.604;2023-04-22T13:16:52;99614.50;;;18.49;31.11
60427;BME280;46274;47.168;27.604;2023-04-22T13:23:07;99539.22;;;17.21;30.45
60427;BME280;46274;47.168;27.604;2023-04-22T13:29:26;99648.59;;;19.01;32.76
60427;BME280;46274;47.168;27.604;2023-04-22T13:43:29;99646.31;;;18.74;32.06
60427;BME280;46274;47.168;27.604;2023-04-22T13:49:38;99542.47;;;18.07;31.40
60427;BME280;46274;47.168;27.604;2023-04-22T13:55:49;99615.81;;;18.59;29.43
60427;BME280;46274;47.168;27.604;2023-04-22T14:02:12;99557.97;;;17.48;32.95
60427;BME280;46274;47.168;27.604;2023-04-22T14:08:43;99661.38;;;17.82;34.23
60427;BME280;46274;47.168;27.604;2023-04-22T14:15:32;99665.84;;;17.95;32.02
60427;BME280;46274;47.168;27.604;2023-04-22T14:22:36;99580.88;;;17.53;31.80
60427;BME280;46274;47.168;27.604;2023-04-22T14:28:50;99683.09;;;17.96;30.82
60427;BME280;46274;47.168;27.604;2023-04-22T14:35:42;99529.97;;;18.23;30.91
60427;BME280;46274;47.168;27.604;2023-04-22T14:42:56;99546.53;;;17.39;31.30
60427;BME280;46274;47.168;27.604;2023-04-22T14:49:42;99521.31;;;17.60;30.38
60427;BME280;46274;47.168;27.604;2023-04-22T14:55:50;99536.88;;;17.90;32.44
60427;BME280;46274;47.168;27.604;2023-04-22T15:16:24;99555.66;;;17.21;33.02
60427;BME280;46274;47.168;27.604;2023-04-22T15:43:57;99551.75;;;16.98;32.31
60427;BME280;46274;47.168;27.604;2023-04-22T15:56:55;99525.81;;;16.52;32.69
60427;BME280;46274;47.168;27.604;2023-04-22T16:03:27;99531.41;;;16.76;33.59
60427;BME280;46274;47.168;27.604;2023-04-22T16:10:04;99573.19;;;17.02;33.82
60427;BME280;46274;47.168;27.604;2023-04-22T16:16:26;99756.22;;;17.65;33.49
60427;BME280;46274;47.168;27.604;2023-04-22T16:22:51;99614.50;;;16.56;34.12
60427;BME280;46274;47.168;27.604;2023-04-22T16:29:28;99593.38;;;16.27;35.61
60427;BME280;46274;47.168;27.604;2023-04-22T16:36:16;99689.66;;;16.79;37.89
60427;BME280;46274;47.168;27.604;2023-04-22T16:42:29;99530.81;;;16.19;37.49
60427;BME280;46274;47.168;27.604;2023-04-22T16:49:06;99761.09;;;17.63;38.38
60427;BME280;46274;47.168;27.604;2023-04-22T16:56:11;99561.88;;;15.99;38.50
60427;BME280;46274;47.168;27.604;2023-04-22T17:02:54;99633.63;;;16.38;39.16
60427;BME280;46274;47.168;27.604;2023-04-22T17:09:22;99561.13;;;16.10;39.07
60427;BME280;46274;47.168;27.604;2023-04-22T17:16:19;99552.06;;;16.17;40.68
60427;BME280;46274;47.168;27.604;2023-04-22T17:22:37;99697.19;;;16.77;42.11
60427;BME280;46274;47.168;27.604;2023-04-22T17:28:53;99560.84;;;15.68;42.80
60427;BME280;46274;47.168;27.604;2023-04-22T17:35:30;99608.00;;;15.57;43.92
60427;BME280;46274;47.168;27.604;2023-04-22T17:41:59;99736.41;;;16.21;45.26
60427;BME280;46274;47.168;27.604;2023-04-22T17:48:18;99566.56;;;14.97;46.26
60427;BME280;46274;47.168;27.604;2023-04-22T17:55:14;99827.63;;;15.88;49.39
60427;BME280;46274;47.168;27.604;2023-04-22T18:01:36;99588.56;;;14.44;49.71
60427;BME280;46274;47.168;27.604;2023-04-22T18:07:40;99610.78;;;14.54;48.90
60427;BME280;46274;47.168;27.604;2023-04-22T18:13:52;99792.31;;;15.21;49.29
60427;BME280;46274;47.168;27.604;2023-04-22T18:20:25;99778.50;;;15.03;49.48
60427;BME280;46274;47.168;27.604;2023-04-22T18:26:40;99845.00;;;15.15;50.91
60427;BME280;46274;47.168;27.604;2023-04-22T18:33:05;99855.75;;;15.10;52.41
60427;BME280;46274;47.168;27.604;2023-04-22T18:39:31;99786.06;;;14.41;53.36
60427;BME280;46274;47.168;27.604;2023-04-22T18:45:44;99656.09;;;11.66;57.10
60427;BME280;46274;47.168;27.604;2023-04-22T18:51:48;99721.38;;;12.79;52.98
60427;BME280;46274;47.168;27.604;2023-04-22T18:58:01;99840.38;;;13.74;55.29
60427;BME280;46274;47.168;27.604;2023-04-22T19:04:20;99640.75;;;13.06;54.43
60427;BME280;46274;47.168;27.604;2023-04-22T19:10:29;99863.19;;;14.35;55.53
60427;BME280;46274;47.168;27.604;2023-04-22T19:16:52;99743.78;;;12.03;60.21
60427;BME280;46274;47.168;27.604;2023-04-22T19:23:01;99796.00;;;13.04;58.45
60427;BME280;46274;47.168;27.604;2023-04-22T19:29:13;99642.16;;;12.47;56.62
60427;BME280;46274;47.168;27.604;2023-04-22T19:35:26;99798.63;;;13.26;57.14
60427;BME280;46274;47.168;27.604;2023-04-22T19:41:46;99778.72;;;12.84;59.54
60427;BME280;46274;47.168;27.604;2023-04-22T19:48:05;99650.75;;;12.22;57.83
60427;BME280;46274;47.168;27.604;2023-04-22T19:54:28;99636.66;;;12.06;57.16
60427;BME280;46274;47.168;27.604;2023-04-22T20:00:42;99877.03;;;11.87;60.54
60427;BME280;46274;47.168;27.604;2023-04-22T20:06:56;99636.72;;;11.11;58.01
60427;BME280;46274;47.168;27.604;2023-04-22T20:13:16;99719.41;;;11.88;58.51
60427;BME280;46274;47.168;27.604;2023-04-22T20:19:25;99793.69;;;12.45;58.39
60427;BME280;46274;47.168;27.604;2023-04-22T20:25:44;99657.66;;;11.54;58.85
60427;BME280;46274;47.168;27.604;2023-04-22T20:32:08;99640.13;;;10.99;60.83
60427;BME280;46274;47.168;27.604;2023-04-22T20:38:38;99631.06;;;10.91;60.66
60427;BME280;46274;47.168;27.604;2023-04-22T20:45:10;99895.75;;;12.33;60.10
60427;BME280;46274;47.168;27.604;2023-04-22T20:51:21;99620.56;;;10.14;60.24
60427;BME280;46274;47.168;27.604;2023-04-22T20:57:37;99649.47;;;9.38;63.61
60427;BME280;46274;47.168;27.604;2023-04-22T21:03:44;99894.50;;;11.69;62.63
60427;BME280;46274;47.168;27.604;2023-04-22T21:09:48;99644.91;;;10.37;61.33
60427;BME280;46274;47.168;27.604;2023-04-22T21:16:12;99630.09;;;10.10;61.86
60427;BME280;46274;47.168;27.604;2023-04-22T21:22:59;99655.25;;;8.56;65.16
60427;BME280;46274;47.168;27.604;2023-04-22T21:29:03;99773.63;;;9.39;66.90
60427;BME280;46274;47.168;27.604;2023-04-22T21:35:24;99741.69;;;9.97;63.12
60427;BME280;46274;47.168;27.604;2023-04-22T21:41:33;99662.91;;;9.46;62.61
60427;BME280;46274;47.168;27.604;2023-04-22T21:47:48;99666.44;;;8.20;66.95
60427;BME280;46274;47.168;27.604;2023-04-22T21:54:09;99676.78;;;8.81;64.64
60427;BME280;46274;47.168;27.604;2023-04-22T22:00:13;99909.75;;;10.11;66.93
60427;BME280;46274;47.168;27.604;2023-04-22T22:06:22;99637.09;;;8.25;67.29
60427;BME280;46274;47.168;27.604;2023-04-22T22:12:38;99905.00;;;9.26;70.49
60427;BME280;46274;47.168;27.604;2023-04-22T22:18:59;99806.28;;;9.38;67.78
60427;BME280;46274;47.168;27.604;2023-04-22T22:25:19;99899.66;;;8.68;71.76
60427;BME280;46274;47.168;27.604;2023-04-22T22:31:59;99693.03;;;8.64;67.26
60427;BME280;46274;47.168;27.604;2023-04-22T22:38:25;99803.75;;;8.32;72.29
60427;BME280;46274;47.168;27.604;2023-04-22T22:44:41;99645.81;;;6.54;76.22
60427;BME280;46274;47.168;27.604;2023-04-22T22:57:48;99791.94;;;8.73;70.86
60427;BME280;46274;47.168;27.604;2023-04-22T23:04:23;99689.38;;;8.41;68.29
60427;BME280;46274;47.168;27.604;2023-04-22T23:11:03;99632.38;;;8.19;68.06
60427;BME280;46274;47.168;27.604;2023-04-22T23:24:35;99747.66;;;7.43;74.33
60427;BME280;46274;47.168;27.604;2023-04-22T23:30:57;99691.78;;;8.11;69.55
60427;BME280;46274;47.168;27.604;2023-04-22T23:37:33;99638.69;;;6.79;75.35
60427;BME280;46274;47.168;27.604;2023-04-22T23:43:50;99815.63;;;7.72;77.28
60427;BME280;46274;47.168;27.604;2023-04-22T23:50:16;99647.09;;;7.84;70.03
60427;BME280;46274;47.168;27.604;2023-04-22T23:56:22;99647.00;;;6.60;76.72
